Time,TemperatureF,DewpointF,PressureIn,WindDirection,WindDirectionDegrees,WindSpeedMPH,WindSpeedGustMPH,Humidity,HourlyPrecipIn,Conditions,Clouds,dailyrainin,SolarRadiationWatts/m^2,SoftwareType,DateUTC
2013-10-06 00:00:00,48.5,41.3,30.10,SE,144,0.0,0.0,76,0.00,,---,0.00,0.00,VWS V14.01,2013-10-05 22:00:00,
2013-10-06 00:10:00,48.4,41.2,30.10,SE,144,0.0,0.0,76,0.00,,---,0.00,0.00,VWS V14.01,2013-10-05 22:10:00,
2013-10-06 00:15:00,48.3,41.1,30.10,SE,144,0.0,0.0,76,0.00,,---,0.00,0.00,VWS V14.01,2013-10-05 22:15:00,
2013-10-06 00:25:00,48.1,41.2,30.10,SE,144,0.0,0.0,77,0.00,,---,0.00,0.00,VWS V14.01,2013-10-05 22:25:00,
2013-10-06 00:30:00,48.1,41.2,30.10,SE,144,0.0,0.0,77,0.00,,---,0.00,0.00,VWS V14.01,2013-10-05 22:30:00,
2013-10-06 00:35:00,48.0,41.2,30.10,SE,144,0.0,0.0,77,0.00,,---,0.00,0.00,VWS V14.01,2013-10-05 22:35:00,
2013-10-06 00:45:00,47.9,40.7,30.10,SE,144,0.0,0.0,76,0.00,,---,0.00,0.00,VWS V14.01,2013-10-05 22:45:00,
2013-10-06 00:54:00,47.8,40.6,30.10,SE,144,0.0,2.0,76,0.00,,---,0.00,0.00,VWS V14.01,2013-10-05 22:54:00,
2013-10-06 01:00:00,47.8,40.6,30.10,SE,135,3.0,3.0,76,0.00,,---,0.00,0.00,VWS V14.01,2013-10-05 23:00:00,
2013-10-06 01:05:00,47.7,40.5,30.10,East,90,1.0,1.0,76,0.00,,---,0.00,0.00,VWS V14.01,2013-10-05 23:05:00,
2013-10-06 01:15:00,47.5,40.3,30.10,East,89,0.0,0.0,76,0.00,,---,0.00,0.00,VWS V14.01,2013-10-05 23:15:00,
2013-10-06 01:20:00,47.4,40.6,30.10,East,88,0.0,0.0,77,0.00,,---,0.00,0.00,VWS V14.01,2013-10-05 23:20:00,
2013-10-06 01:30:00,47.3,40.5,30.10,East,88,1.0,2.0,77,0.00,,---,0.00,0.00,VWS V14.01,2013-10-05 23:30:00,
2013-10-06 01:35:00,47.2,40.4,30.10,East,89,0.0,0.0,77,0.00,,---,0.00,0.00,VWS V14.01,2013-10-05 23:35:00,
2013-10-06 01:40:00,47.1,40.6,30.10,East,89,0.0,0.0,78,0.00,,---,0.00,0.00,VWS V14.01,2013-10-05 23:40:00,
2013-10-06 01:45:00,47.0,40.5,30.11,East,88,0.0,0.0,78,0.00,,---,0.00,0.00,VWS V14.01,2013-10-05 23:45:00,
2013-10-06 01:50:00,47.0,40.5,30.11,East,89,0.0,0.0,78,0.00,,---,0.00,0.00,VWS V14.01,2013-10-05 23:50:00,
2013-10-06 01:55:00,46.9,40.4,30.11,East,89,0.0,0.0,78,0.00,,---,0.00,0.00,VWS V14.01,2013-10-05 23:55:00,
2013-10-06 02:00:00,46.8,40.3,30.11,East,88,0.0,0.0,78,0.00,,---,0.00,0.00,VWS V14.01,2013-10-06 00:00:00,
2013-10-06 02:10:00,46.6,40.5,30.11,East,89,0.0,0.0,79,0.00,,---,0.00,0.00,VWS V14.01,2013-10-06 00:10:00,
2013-10-06 02:20:00,46.4,40.2,30.11,East,88,0.0,0.0,79,0.00,,---,0.00,0.00,VWS V14.01,2013-10-06 00:20:00,
2013-10-06 02:30:00,46.3,40.5,30.11,East,89,0.0,0.0,80,0.00,,---,0.00,0.00,VWS V14.01,2013-10-06 00:30:00,
2013-10-06 02:35:00,46.2,40.4,30.11,East,89,0.0,0.0,80,0.00,,---,0.00,0.00,VWS V14.01,2013-10-06 00:35:00,
2013-10-06 02:40:00,46.1,40.3,30.11,East,89,0.0,0.0,80,0.00,,---,0.00,0.00,VWS V14.01,2013-10-06 00:40:00,
2013-10-06 02:45:00,46.0,40.2,30.11,East,89,0.0,0.0,80,0.00,,---,0.00,0.00,VWS V14.01,2013-10-06 00:45:00,
2013-10-06 02:50:00,45.9,40.4,30.11,East,89,0.0,0.0,81,0.00,,---,0.00,0.00,VWS V14.01,2013-10-06 00:50:00,
2013-10-06 02:55:00,45.8,40.3,30.11,East,88,2.0,2.0,81,0.00,,---,0.00,0.00,VWS V14.01,2013-10-06 00:55:00,
2013-10-06 03:00:00,45.6,40.1,30.11,East,89,0.0,0.0,81,0.00,,---,0.00,0.00,VWS V14.01,2013-10-06 01:00:00,
2013-10-06 03:05:00,45.5,40.3,30.11,East,89,0.0,0.0,82,0.00,,---,0.00,0.00,VWS V14.01,2013-10-06 01:05:00,
2013-10-06 03:15:00,45.3,40.1,30.11,East,89,0.0,0.0,82,0.00,,---,0.00,0.00,VWS V14.01,2013-10-06 01:15:00,
2013-10-06 03:25:00,45.2,40.3,30.11,East,88,0.0,0.0,83,0.00,,---,0.00,0.00,VWS V14.01,2013-10-06 01:25:00,
2013-10-06 03:35:00,45.1,40.2,30.11,East,88,0.0,0.0,83,0.00,,---,0.00,0.00,VWS V14.01,2013-10-06 01:35:00,
2013-10-06 03:40:00,45.1,40.2,30.11,East,89,0.0,0.0,83,0.00,,---,0.00,0.00,VWS V14.01,2013-10-06 01:40:00,
2013-10-06 03:45:00,45.0,40.2,30.11,East,89,0.0,0.0,83,0.00,,---,0.00,0.00,VWS V14.01,2013-10-06 01:45:00,
2013-10-06 03:50:00,45.0,40.2,30.11,East,89,0.0,0.0,83,0.00,,---,0.00,0.00,VWS V14.01,2013-10-06 01:50:00,
2013-10-06 03:55:00,45.0,40.2,30.11,East,89,0.0,0.0,83,0.00,,---,0.00,0.00,VWS V14.01,2013-10-06 01:55:00,
2013-10-06 04:00:00,45.0,40.5,30.12,East,89,0.0,0.0,84,0.00,,---,0.00,0.00,VWS V14.01,2013-10-06 02:00:00,
2013-10-06 04:05:00,45.0,40.5,30.12,East,89,0.0,0.0,84,0.00,,---,0.00,0.00,VWS V14.01,2013-10-06 02:05:00,
2013-10-06 04:15:00,45.0,40.5,30.12,East,88,0.0,0.0,84,0.00,,---,0.00,0.00,VWS V14.01,2013-10-06 02:15:00,
2013-10-06 04:25:00,45.2,40.7,30.12,East,89,0.0,0.0,84,0.00,,---,0.00,0.00,VWS V14.01,2013-10-06 02:25:00,
2013-10-06 04:30:00,45.1,40.6,30.12,East,89,0.0,0.0,84,0.00,,---,0.00,0.00,VWS V14.01,2013-10-06 02:30:00,
2013-10-06 04:40:00,45.1,40.6,30.12,East,89,0.0,0.0,84,0.00,,---,0.00,0.00,VWS V14.01,2013-10-06 02:40:00,
2013-10-06 04:45:00,45.1,40.6,30.13,East,89,0.0,0.0,84,0.00,,---,0.00,0.00,VWS V14.01,2013-10-06 02:45:00,
2013-10-06 04:50:00,45.1,40.6,30.13,East,89,0.0,0.0,84,0.00,,---,0.00,0.00,VWS V14.01,2013-10-06 02:50:00,
2013-10-06 04:55:00,45.0,40.5,30.13,East,88,0.0,0.0,84,0.00,,---,0.00,0.00,VWS V14.01,2013-10-06 02:55:00,
2013-10-06 05:00:00,45.0,40.5,30.13,East,88,0.0,0.0,84,0.00,,---,0.00,0.00,VWS V14.01,2013-10-06 03:00:00,
2013-10-06 05:10:00,45.0,40.5,30.13,East,88,0.0,0.0,84,0.00,,---,0.00,0.00,VWS V14.01,2013-10-06 03:10:00,
2013-10-06 05:15:00,45.0,40.8,30.13,East,88,0.0,0.0,85,0.00,,---,0.00,0.00,VWS V14.01,2013-10-06 03:15:00,
2013-10-06 05:20:00,45.0,40.8,30.13,East,89,0.0,0.0,85,0.00,,---,0.00,0.00,VWS V14.01,2013-10-06 03:20:00,
2013-10-06 05:25:00,45.0,40.8,30.13,East,89,0.0,0.0,85,0.00,,---,0.00,0.00,VWS V14.01,2013-10-06 03:25:00,
2013-10-06 05:30:00,44.9,40.7,30.14,East,88,0.0,0.0,85,0.00,,---,0.00,0.00,VWS V14.01,2013-10-06 03:30:00,
2013-10-06 05:35:00,44.8,40.6,30.14,East,89,0.0,0.0,85,0.00,,---,0.00,0.00,VWS V14.01,2013-10-06 03:35:00,
2013-10-06 05:40:00,44.7,40.5,30.14,East,89,0.0,0.0,85,0.00,,---,0.00,0.00,VWS V14.01,2013-10-06 03:40:00,
2013-10-06 05:45:00,44.7,40.5,30.14,East,88,0.0,0.0,85,0.00,,---,0.00,0.00,VWS V14.01,2013-10-06 03:45:00,
2013-10-06 05:50:00,44.6,40.7,30.14,East,89,0.0,0.0,86,0.00,,---,0.00,0.00,VWS V14.01,2013-10-06 03:50:00,
2013-10-06 06:00:00,44.6,40.7,30.14,East,88,0.0,0.0,86,0.00,,---,0.00,0.00,VWS V14.01,2013-10-06 04:00:00,
2013-10-06 06:05:00,44.6,40.7,30.14,East,88,0.0,0.0,86,0.00,,---,0.00,0.00,VWS V14.01,2013-10-06 04:05:00,
2013-10-06 06:10:00,44.5,40.6,30.14,East,89,0.0,0.0,86,0.00,,---,0.00,0.00,VWS V14.01,2013-10-06 04:10:00,
2013-10-06 06:15:00,44.5,40.6,30.15,East,89,0.0,0.0,86,0.00,,---,0.00,0.00,VWS V14.01,2013-10-06 04:15:00,
2013-10-06 06:20:00,44.4,40.5,30.15,East,88,0.0,0.0,86,0.00,,---,0.00,0.00,VWS V14.01,2013-10-06 04:20:00,
2013-10-06 06:30:00,44.2,40.3,30.15,East,88,0.0,0.0,86,0.00,,---,0.00,0.00,VWS V14.01,2013-10-06 04:30:00,
2013-10-06 06:40:00,44.1,40.2,30.15,East,89,0.0,0.0,86,0.00,,---,0.00,0.00,VWS V14.01,2013-10-06 04:40:00,
2013-10-06 06:45:00,44.1,40.2,30.15,East,88,0.0,0.0,86,0.00,,---,0.00,0.00,VWS V14.01,2013-10-06 04:45:00,
2013-10-06 06:50:00,44.1,40.2,30.15,East,89,0.0,0.0,86,0.00,,---,0.00,0.00,VWS V14.01,2013-10-06 04:50:00,
2013-10-06 06:55:00,44.1,40.5,30.15,East,88,0.0,0.0,87,0.00,,---,0.00,0.00,VWS V14.01,2013-10-06 04:55:00,
2013-10-06 07:00:00,44.1,40.2,30.16,East,88,0.0,0.0,86,0.00,,---,0.00,0.00,VWS V14.01,2013-10-06 05:00:00,
2013-10-06 07:05:00,44.1,40.5,30.16,East,89,0.0,0.0,87,0.00,,---,0.00,0.00,VWS V14.01,2013-10-06 05:05:00,
2013-10-06 07:10:00,44.1,40.5,30.16,East,89,0.0,0.0,87,0.00,,---,0.00,0.00,VWS V14.01,2013-10-06 05:10:00,
2013-10-06 07:20:00,44.1,40.5,30.16,East,88,0.0,0.0,87,0.00,,---,0.00,0.00,VWS V14.01,2013-10-06 05:20:00,
2013-10-06 07:25:00,44.2,40.6,30.16,East,89,0.0,0.0,87,0.00,,---,0.00,5.00,VWS V14.01,2013-10-06 05:25:00,
2013-10-06 07:30:00,44.2,40.6,30.16,East,90,2.0,3.0,87,0.00,,---,0.00,9.00,VWS V14.01,2013-10-06 05:30:00,
2013-10-06 07:40:00,44.5,41.2,30.16,East,90,0.0,0.0,88,0.00,,---,0.00,25.00,VWS V14.01,2013-10-06 05:40:00,
2013-10-06 07:45:00,44.6,41.3,30.17,East,90,0.0,0.0,88,0.00,,---,0.00,39.00,VWS V14.01,2013-10-06 05:45:00,
2013-10-06 07:55:00,44.8,41.5,30.17,East,91,0.0,0.0,88,0.00,,---,0.00,35.00,VWS V14.01,2013-10-06 05:55:00,
2013-10-06 08:00:00,44.8,41.5,30.17,East,91,0.0,0.0,88,0.00,,---,0.00,42.00,VWS V14.01,2013-10-06 06:00:00,
2013-10-06 08:10:00,44.9,41.9,30.17,East,91,0.0,0.0,89,0.00,,---,0.00,56.00,VWS V14.01,2013-10-06 06:10:00,
2013-10-06 08:20:00,45.0,42.0,30.17,East,91,0.0,0.0,89,0.00,,---,0.00,67.00,VWS V14.01,2013-10-06 06:20:00,
2013-10-06 08:30:00,45.3,42.3,30.17,East,91,0.0,0.0,89,0.00,,---,0.00,70.00,VWS V14.01,2013-10-06 06:30:00,
2013-10-06 08:35:00,45.4,42.3,30.17,East,91,0.0,0.0,89,0.00,,---,0.00,63.00,VWS V14.01,2013-10-06 06:35:00,
2013-10-06 08:45:00,45.6,42.5,30.18,East,91,0.0,0.0,89,0.00,,---,0.00,172.00,VWS V14.01,2013-10-06 06:45:00,
2013-10-06 08:50:00,45.7,42.7,30.18,East,90,2.0,2.0,89,0.00,,---,0.00,111.00,VWS V14.01,2013-10-06 06:50:00,
2013-10-06 08:55:00,45.8,42.5,30.18,ENE,63,0.0,3.0,88,0.00,,---,0.00,135.00,VWS V14.01,2013-10-06 06:55:00,
2013-10-06 09:00:00,46.0,42.3,30.18,ENE,59,0.0,3.0,87,0.00,,---,0.00,141.00,VWS V14.01,2013-10-06 07:00:00,
2013-10-06 09:10:00,46.3,42.0,30.18,North,360,2.0,4.0,85,0.00,,---,0.00,139.00,VWS V14.01,2013-10-06 07:10:00,
2013-10-06 09:15:00,46.4,41.5,30.19,North,360,0.0,4.0,83,0.00,,---,0.00,144.00,VWS V14.01,2013-10-06 07:15:00,
2013-10-06 09:20:00,46.7,41.2,30.19,North,360,0.0,2.0,81,0.00,,---,0.00,146.00,VWS V14.01,2013-10-06 07:20:00,
2013-10-06 09:30:00,46.5,40.3,30.19,NW,325,1.0,5.0,79,0.00,,---,0.00,151.00,VWS V14.01,2013-10-06 07:30:00,
2013-10-06 09:35:00,46.4,40.2,30.19,NW,317,0.0,3.0,79,0.00,,---,0.00,155.00,VWS V14.01,2013-10-06 07:35:00,
2013-10-06 09:40:00,47.1,41.3,30.19,NW,318,1.0,2.0,80,0.00,,---,0.00,160.00,VWS V14.01,2013-10-06 07:40:00,
2013-10-06 09:45:00,47.2,40.4,30.19,NW,321,0.0,4.0,77,0.00,,---,0.00,167.00,VWS V14.01,2013-10-06 07:45:00,
2013-10-06 09:50:00,46.9,40.4,30.19,North,355,2.0,4.0,78,0.00,,---,0.00,211.00,VWS V14.01,2013-10-06 07:50:00,
2013-10-06 09:55:00,47.2,40.7,30.19,North,355,2.0,4.0,78,0.00,,---,0.00,251.00,VWS V14.01,2013-10-06 07:55:00,
2013-10-06 10:00:00,48.0,41.2,30.19,North,355,0.0,2.0,77,0.00,,---,0.00,403.00,VWS V14.01,2013-10-06 08:00:00,
2013-10-06 10:10:00,48.8,41.2,30.19,North,355,0.0,1.0,75,0.00,,---,0.00,425.00,VWS V14.01,2013-10-06 08:10:00,
2013-10-06 10:20:00,50.2,42.2,30.20,North,360,4.0,4.0,74,0.00,,---,0.00,297.00,VWS V14.01,2013-10-06 08:20:00,
2013-10-06 10:25:00,49.8,41.5,30.20,North,360,0.0,0.0,73,0.00,,---,0.00,199.00,VWS V14.01,2013-10-06 08:25:00,
2013-10-06 10:30:00,49.4,41.5,30.21,North,360,1.0,1.0,74,0.00,,---,0.00,155.00,VWS V14.01,2013-10-06 08:30:00,
2013-10-06 10:40:00,49.4,41.5,30.21,North,360,0.0,0.0,74,0.00,,---,0.00,155.00,VWS V14.01,2013-10-06 08:40:00,
2013-10-06 10:45:00,49.9,41.6,30.21,North,360,0.0,0.0,73,0.00,,---,0.00,169.00,VWS V14.01,2013-10-06 08:45:00,
2013-10-06 10:50:00,50.1,41.4,30.21,North,360,0.0,0.0,72,0.00,,---,0.00,192.00,VWS V14.01,2013-10-06 08:50:00,
2013-10-06 10:55:00,50.1,41.8,30.21,North,360,0.0,0.0,73,0.00,,---,0.00,223.00,VWS V14.01,2013-10-06 08:55:00,
2013-10-06 11:00:00,49.9,41.2,30.21,North,360,0.0,0.0,72,0.00,,---,0.00,274.00,VWS V14.01,2013-10-06 09:00:00,
2013-10-06 11:10:00,50.0,41.3,30.21,North,360,0.0,0.0,72,0.00,,---,0.00,234.00,VWS V14.01,2013-10-06 09:10:00,
2013-10-06 11:15:00,49.9,41.6,30.21,North,360,0.0,0.0,73,0.00,,---,0.00,211.00,VWS V14.01,2013-10-06 09:15:00,
2013-10-06 11:20:00,50.1,41.4,30.21,WNW,298,2.0,3.0,72,0.00,,---,0.00,269.00,VWS V14.01,2013-10-06 09:20:00,
2013-10-06 11:25:00,50.0,41.3,30.21,WNW,298,0.0,1.0,72,0.00,,---,0.00,237.00,VWS V14.01,2013-10-06 09:25:00,
2013-10-06 11:30:00,50.2,41.5,30.21,WNW,298,0.0,0.0,72,0.00,,---,0.00,169.00,VWS V14.01,2013-10-06 09:30:00,
2013-10-06 11:35:00,50.7,41.3,30.21,WNW,298,0.0,2.0,70,0.00,,---,0.00,160.00,VWS V14.01,2013-10-06 09:35:00,
2013-10-06 11:40:00,51.1,41.7,30.21,WNW,298,0.0,1.0,70,0.00,,---,0.00,171.00,VWS V14.01,2013-10-06 09:40:00,
2013-10-06 11:45:00,51.0,41.6,30.21,WNW,298,0.0,0.0,70,0.00,,---,0.00,179.00,VWS V14.01,2013-10-06 09:45:00,
2013-10-06 11:50:00,50.9,41.5,30.21,West,274,0.0,4.0,70,0.00,,---,0.00,178.00,VWS V14.01,2013-10-06 09:50:00,
2013-10-06 11:55:00,50.3,40.9,30.21,West,272,0.0,1.0,70,0.00,,---,0.00,167.00,VWS V14.01,2013-10-06 09:55:00,
2013-10-06 12:00:00,50.7,41.3,30.22,West,273,0.0,0.0,70,0.00,,---,0.00,172.00,VWS V14.01,2013-10-06 10:00:00,
2013-10-06 12:10:00,50.8,41.0,30.22,West,273,0.0,0.0,69,0.00,,---,0.00,202.00,VWS V14.01,2013-10-06 10:10:00,
2013-10-06 12:15:00,51.1,41.7,30.22,West,273,0.0,0.0,70,0.00,,---,0.00,229.00,VWS V14.01,2013-10-06 10:15:00,
2013-10-06 12:20:00,51.4,41.2,30.22,West,272,1.0,3.0,68,0.00,,---,0.00,264.00,VWS V14.01,2013-10-06 10:20:00,
2013-10-06 12:30:00,51.8,42.0,30.22,West,272,0.0,3.0,69,0.00,,---,0.00,258.00,VWS V14.01,2013-10-06 10:30:00,
2013-10-06 12:35:00,51.9,42.1,30.22,West,272,0.0,2.0,69,0.00,,---,0.00,265.00,VWS V14.01,2013-10-06 10:35:00,
2013-10-06 12:40:00,52.2,42.3,30.22,West,272,0.0,0.0,69,0.00,,---,0.00,272.00,VWS V14.01,2013-10-06 10:40:00,
2013-10-06 12:50:00,52.6,42.7,30.22,West,271,0.0,0.0,69,0.00,,---,0.00,253.00,VWS V14.01,2013-10-06 10:50:00,
2013-10-06 12:55:00,52.7,42.5,30.22,West,272,0.0,0.0,68,0.00,,---,0.00,251.00,VWS V14.01,2013-10-06 10:55:00,
2013-10-06 13:00:00,52.9,42.3,30.22,West,271,0.0,0.0,67,0.00,,---,0.00,287.00,VWS V14.01,2013-10-06 11:00:00,
2013-10-06 13:05:00,53.6,42.9,30.22,West,271,0.0,0.0,67,0.00,,---,0.00,346.00,VWS V14.01,2013-10-06 11:05:00,
2013-10-06 13:10:00,54.0,42.9,30.22,West,271,0.0,0.0,66,0.00,,---,0.00,323.00,VWS V14.01,2013-10-06 11:10:00,
2013-10-06 13:20:00,54.7,43.6,30.22,West,272,1.0,1.0,66,0.00,,---,0.00,380.00,VWS V14.01,2013-10-06 11:20:00,
2013-10-06 13:25:00,54.0,42.5,30.22,West,269,0.0,0.0,65,0.00,,---,0.00,330.00,VWS V14.01,2013-10-06 11:25:00,
2013-10-06 13:30:00,55.1,43.2,30.22,West,269,0.0,1.0,64,0.00,,---,0.00,297.00,VWS V14.01,2013-10-06 11:30:00,
2013-10-06 13:35:00,55.9,43.5,30.22,West,271,0.0,0.0,63,0.00,,---,0.00,278.00,VWS V14.01,2013-10-06 11:35:00,
2013-10-06 13:40:00,55.9,42.7,30.22,West,271,0.0,0.0,61,0.00,,---,0.00,383.00,VWS V14.01,2013-10-06 11:40:00,
2013-10-06 13:45:00,55.6,43.2,30.21,West,272,0.0,3.0,63,0.00,,---,0.00,371.00,VWS V14.01,2013-10-06 11:45:00,
2013-10-06 13:50:00,54.7,43.2,30.21,West,271,0.0,3.0,65,0.00,,---,0.00,257.00,VWS V14.01,2013-10-06 11:50:00,
2013-10-06 13:55:00,54.6,42.7,30.21,West,272,0.0,4.0,64,0.00,,---,0.00,237.00,VWS V14.01,2013-10-06 11:55:00,
2013-10-06 14:00:00,54.7,42.8,30.21,West,272,0.0,0.0,64,0.00,,---,0.00,227.00,VWS V14.01,2013-10-06 12:00:00,
2013-10-06 14:10:00,55.3,42.9,30.21,West,269,0.0,3.0,63,0.00,,---,0.00,193.00,VWS V14.01,2013-10-06 12:10:00,
2013-10-06 14:15:00,55.0,43.1,30.21,West,269,4.0,4.0,64,0.00,,---,0.00,207.00,VWS V14.01,2013-10-06 12:15:00,
2013-10-06 14:25:00,55.1,42.8,30.21,West,266,0.0,0.0,63,0.00,,---,0.00,200.00,VWS V14.01,2013-10-06 12:25:00,
2013-10-06 14:30:00,55.4,43.0,30.21,West,266,2.0,2.0,63,0.00,,---,0.00,271.00,VWS V14.01,2013-10-06 12:30:00,
2013-10-06 14:35:00,55.3,42.9,30.21,West,266,0.0,0.0,63,0.00,,---,0.00,279.00,VWS V14.01,2013-10-06 12:35:00,
2013-10-06 14:45:00,56.4,43.6,30.21,West,265,0.0,0.0,62,0.00,,---,0.00,301.00,VWS V14.01,2013-10-06 12:45:00,
2013-10-06 14:50:00,56.7,43.4,30.21,West,265,0.0,0.0,61,0.00,,---,0.00,591.00,VWS V14.01,2013-10-06 12:50:00,
2013-10-06 15:00:00,56.7,43.0,30.21,West,276,0.0,3.0,60,0.00,,---,0.00,592.00,VWS V14.01,2013-10-06 13:00:00,
2013-10-06 15:05:00,58.0,44.2,30.21,West,279,2.0,2.0,60,0.00,,---,0.00,385.00,VWS V14.01,2013-10-06 13:05:00,
2013-10-06 15:10:00,59.0,44.3,30.21,NNE,28,0.0,5.0,58,0.00,,---,0.00,362.00,VWS V14.01,2013-10-06 13:10:00,
2013-10-06 15:15:00,59.2,44.5,30.20,NNW,346,3.0,6.0,58,0.00,,---,0.00,436.00,VWS V14.01,2013-10-06 13:15:00,
2013-10-06 15:20:00,58.1,43.9,30.20,NNE,14,1.0,2.0,59,0.00,,---,0.00,450.00,VWS V14.01,2013-10-06 13:20:00,
2013-10-06 15:25:00,58.7,44.0,30.20,North,11,0.0,4.0,58,0.00,,---,0.00,283.00,VWS V14.01,2013-10-06 13:25:00,
2013-10-06 15:30:00,59.0,44.7,30.21,NE,56,4.0,4.0,59,0.00,,---,0.00,367.00,VWS V14.01,2013-10-06 13:30:00,
2013-10-06 15:40:00,59.6,45.3,30.21,NE,53,4.0,5.0,59,0.00,,---,0.00,487.00,VWS V14.01,2013-10-06 13:40:00,
2013-10-06 15:45:00,61.0,45.2,30.21,NE,34,0.0,3.0,56,0.00,,---,0.00,455.00,VWS V14.01,2013-10-06 13:45:00,
2013-10-06 15:50:00,60.8,44.5,30.21,ENE,59,0.0,3.0,55,0.00,,---,0.00,452.00,VWS V14.01,2013-10-06 13:50:00,
2013-10-06 15:55:00,60.2,44.5,30.21,NNE,28,4.0,4.0,56,0.00,,---,0.00,418.00,VWS V14.01,2013-10-06 13:55:00,
2013-10-06 16:00:00,59.3,44.5,30.21,NNE,18,2.0,3.0,58,0.00,,---,0.00,276.00,VWS V14.01,2013-10-06 14:00:00,
2013-10-06 16:05:00,60.3,45.0,30.21,NNE,18,0.0,0.0,57,0.00,,---,0.00,339.00,VWS V14.01,2013-10-06 14:05:00,
2013-10-06 16:15:00,60.7,45.4,30.21,NE,38,0.0,3.0,57,0.00,,---,0.00,178.00,VWS V14.01,2013-10-06 14:15:00,
2013-10-06 16:20:00,60.2,44.9,30.21,NE,41,0.0,3.0,57,0.00,,---,0.00,185.00,VWS V14.01,2013-10-06 14:20:00,
2013-10-06 16:30:00,60.0,44.3,30.21,ENE,74,0.0,3.0,56,0.00,,---,0.00,294.00,VWS V14.01,2013-10-06 14:30:00,
2013-10-06 16:35:00,59.7,44.5,30.21,East,87,0.0,4.0,57,0.00,,---,0.00,232.00,VWS V14.01,2013-10-06 14:35:00,
2013-10-06 16:40:00,60.5,45.2,30.21,NE,53,0.0,4.0,57,0.00,,---,0.00,118.00,VWS V14.01,2013-10-06 14:40:00,
2013-10-06 16:50:00,60.3,45.9,30.21,NNE,19,0.0,2.0,59,0.00,,---,0.00,200.00,VWS V14.01,2013-10-06 14:50:00,
2013-10-06 16:55:00,60.4,45.6,30.21,NNE,19,0.0,0.0,58,0.00,,---,0.00,200.00,VWS V14.01,2013-10-06 14:55:00,
2013-10-06 17:00:00,60.4,45.1,30.21,NE,42,2.0,3.0,57,0.00,,---,0.00,186.00,VWS V14.01,2013-10-06 15:00:00,
2013-10-06 17:05:00,59.6,44.8,30.21,NE,44,1.0,1.0,58,0.00,,---,0.00,179.00,VWS V14.01,2013-10-06 15:05:00,
2013-10-06 17:10:00,59.1,44.8,30.21,East,101,3.0,4.0,59,0.00,,---,0.00,153.00,VWS V14.01,2013-10-06 15:10:00,
2013-10-06 17:20:00,59.0,44.7,30.21,East,88,2.0,2.0,59,0.00,,---,0.00,93.00,VWS V14.01,2013-10-06 15:20:00,
2013-10-06 17:25:00,59.4,45.1,30.21,ENE,78,0.0,0.0,59,0.00,,---,0.00,104.00,VWS V14.01,2013-10-06 15:25:00,
2013-10-06 17:30:00,59.0,45.2,30.21,East,80,0.0,1.0,60,0.00,,---,0.00,93.00,VWS V14.01,2013-10-06 15:30:00,
2013-10-06 17:35:00,59.3,45.0,30.21,East,80,0.0,1.0,59,0.00,,---,0.00,58.00,VWS V14.01,2013-10-06 15:35:00,
2013-10-06 17:45:00,58.9,44.6,30.21,East,81,0.0,3.0,59,0.00,,---,0.00,58.00,VWS V14.01,2013-10-06 15:45:00,
2013-10-06 17:50:00,58.7,44.4,30.21,East,80,3.0,4.0,59,0.00,,---,0.00,47.00,VWS V14.01,2013-10-06 15:50:00,
2013-10-06 17:55:00,58.8,45.0,30.21,East,80,0.0,0.0,60,0.00,,---,0.00,39.00,VWS V14.01,2013-10-06 15:55:00,
2013-10-06 18:00:00,58.7,44.9,30.22,East,80,0.0,0.0,60,0.00,,---,0.00,32.00,VWS V14.01,2013-10-06 16:00:00,
2013-10-06 18:10:00,58.4,44.6,30.22,East,80,0.0,1.0,60,0.00,,---,0.00,19.00,VWS V14.01,2013-10-06 16:10:00,
2013-10-06 18:15:00,58.0,44.6,30.22,East,80,0.0,1.0,61,0.00,,---,0.00,18.00,VWS V14.01,2013-10-06 16:15:00,
2013-10-06 18:20:00,57.9,45.0,30.22,East,80,0.0,1.0,62,0.00,,---,0.00,12.00,VWS V14.01,2013-10-06 16:20:00,
2013-10-06 18:30:00,57.7,45.2,30.22,East,80,0.0,2.0,63,0.00,,---,0.00,5.00,VWS V14.01,2013-10-06 16:30:00,
2013-10-06 18:40:00,57.1,45.0,30.22,East,80,0.0,0.0,64,0.00,,---,0.00,0.00,VWS V14.01,2013-10-06 16:40:00,
2013-10-06 18:45:00,56.8,44.8,30.23,East,80,0.0,0.0,64,0.00,,---,0.00,0.00,VWS V14.01,2013-10-06 16:45:00,
2013-10-06 18:50:00,56.6,45.0,30.23,East,80,0.0,0.0,65,0.00,,---,0.00,0.00,VWS V14.01,2013-10-06 16:50:00,
2013-10-06 18:55:00,56.4,44.8,30.23,East,80,0.0,0.0,65,0.00,,---,0.00,0.00,VWS V14.01,2013-10-06 16:55:00,
2013-10-06 19:00:00,56.2,44.6,30.24,East,80,0.0,0.0,65,0.00,,---,0.00,0.00,VWS V14.01,2013-10-06 17:00:00,
2013-10-06 19:10:00,55.5,44.7,30.24,East,81,0.0,4.0,67,0.00,,---,0.00,0.00,VWS V14.01,2013-10-06 17:10:00,
2013-10-06 19:15:00,55.1,44.7,30.24,East,81,1.0,2.0,68,0.00,,---,0.00,0.00,VWS V14.01,2013-10-06 17:15:00,
2013-10-06 19:20:00,54.8,44.5,30.24,East,81,0.0,0.0,68,0.00,,---,0.00,0.00,VWS V14.01,2013-10-06 17:20:00,
2013-10-06 19:25:00,54.7,44.7,30.24,East,81,0.0,0.0,69,0.00,,---,0.00,0.00,VWS V14.01,2013-10-06 17:25:00,
2013-10-06 19:30:00,54.5,44.5,30.24,East,81,0.0,0.0,69,0.00,,---,0.00,0.00,VWS V14.01,2013-10-06 17:30:00,
2013-10-06 19:40:00,54.0,44.5,30.24,East,80,0.0,0.0,70,0.00,,---,0.00,0.00,VWS V14.01,2013-10-06 17:40:00,
2013-10-06 19:50:00,53.6,44.4,30.25,East,81,0.0,0.0,71,0.00,,---,0.00,0.00,VWS V14.01,2013-10-06 17:50:00,
2013-10-06 19:55:00,53.3,44.5,30.25,East,80,0.0,0.0,72,0.00,,---,0.00,0.00,VWS V14.01,2013-10-06 17:55:00,
2013-10-06 20:00:00,53.1,44.3,30.25,East,80,0.0,0.0,72,0.00,,---,0.00,0.00,VWS V14.01,2013-10-06 18:00:00,
2013-10-06 20:10:00,52.6,44.2,30.25,East,80,0.0,0.0,73,0.00,,---,0.00,0.00,VWS V14.01,2013-10-06 18:10:00,
2013-10-06 20:20:00,52.1,44.1,30.25,East,81,0.0,0.0,74,0.00,,---,0.00,0.00,VWS V14.01,2013-10-06 18:20:00,
2013-10-06 20:25:00,51.9,43.9,30.25,East,80,0.0,0.0,74,0.00,,---,0.00,0.00,VWS V14.01,2013-10-06 18:25:00,
2013-10-06 20:30:00,51.7,44.0,30.26,East,81,0.0,0.0,75,0.00,,---,0.00,0.00,VWS V14.01,2013-10-06 18:30:00,
2013-10-06 20:40:00,51.3,43.7,30.26,East,80,0.0,0.0,75,0.00,,---,0.00,0.00,VWS V14.01,2013-10-06 18:40:00,
2013-10-06 20:45:00,51.1,43.8,30.26,East,81,0.0,0.0,76,0.00,,---,0.00,0.00,VWS V14.01,2013-10-06 18:45:00,
2013-10-06 20:50:00,50.9,43.6,30.26,East,81,0.0,0.0,76,0.00,,---,0.00,0.00,VWS V14.01,2013-10-06 18:50:00,
2013-10-06 20:55:00,50.7,43.8,30.26,East,81,0.0,0.0,77,0.00,,---,0.00,0.00,VWS V14.01,2013-10-06 18:55:00,
2013-10-06 21:00:00,50.4,43.5,30.27,East,81,0.0,0.0,77,0.00,,---,0.00,0.00,VWS V14.01,2013-10-06 19:00:00,
2013-10-06 21:05:00,50.2,43.3,30.27,East,81,0.0,0.0,77,0.00,,---,0.00,0.00,VWS V14.01,2013-10-06 19:05:00,
2013-10-06 21:10:00,49.9,43.3,30.27,East,80,0.0,0.0,78,0.00,,---,0.00,0.00,VWS V14.01,2013-10-06 19:10:00,
2013-10-06 21:15:00,49.7,43.5,30.27,East,80,0.0,0.0,79,0.00,,---,0.00,0.00,VWS V14.01,2013-10-06 19:15:00,
2013-10-06 21:20:00,49.4,43.2,30.27,East,81,0.0,0.0,79,0.00,,---,0.00,0.00,VWS V14.01,2013-10-06 19:20:00,
2013-10-06 21:25:00,49.2,43.3,30.27,East,81,0.0,0.0,80,0.00,,---,0.00,0.00,VWS V14.01,2013-10-06 19:25:00,
2013-10-06 21:30:00,49.0,43.4,30.27,East,81,0.0,0.0,81,0.00,,---,0.00,0.00,VWS V14.01,2013-10-06 19:30:00,
2013-10-06 21:40:00,48.6,43.0,30.27,East,81,0.0,0.0,81,0.00,,---,0.00,0.00,VWS V14.01,2013-10-06 19:40:00,
2013-10-06 21:45:00,48.5,43.0,30.27,East,81,0.0,0.0,81,0.00,,---,0.00,0.00,VWS V14.01,2013-10-06 19:45:00,
2013-10-06 21:55:00,48.2,42.7,30.27,East,80,0.0,0.0,81,0.00,,---,0.00,0.00,VWS V14.01,2013-10-06 19:55:00,
2013-10-06 22:00:00,48.0,42.8,30.28,East,80,0.0,0.0,82,0.00,,---,0.00,0.00,VWS V14.01,2013-10-06 20:00:00,
2013-10-06 22:10:00,47.7,42.5,30.28,East,81,0.0,0.0,82,0.00,,---,0.00,0.00,VWS V14.01,2013-10-06 20:10:00,
2013-10-06 22:15:00,47.6,42.4,30.28,East,81,0.0,0.0,82,0.00,,---,0.00,0.00,VWS V14.01,2013-10-06 20:15:00,
2013-10-06 22:20:00,47.4,42.5,30.28,East,81,0.0,0.0,83,0.00,,---,0.00,0.00,VWS V14.01,2013-10-06 20:20:00,
2013-10-06 22:25:00,47.2,42.3,30.28,East,81,2.0,2.0,83,0.00,,---,0.00,0.00,VWS V14.01,2013-10-06 20:25:00,
2013-10-06 22:30:00,46.9,42.3,30.28,East,80,0.0,0.0,84,0.00,,---,0.00,0.00,VWS V14.01,2013-10-06 20:30:00,
2013-10-06 22:40:00,46.4,41.8,30.28,East,81,0.0,0.0,84,0.00,,---,0.00,0.00,VWS V14.01,2013-10-06 20:40:00,
2013-10-06 22:45:00,46.3,42.0,30.28,East,81,0.0,0.0,85,0.00,,---,0.00,0.00,VWS V14.01,2013-10-06 20:45:00,
2013-10-06 22:50:00,46.1,41.8,30.28,East,81,0.0,0.0,85,0.00,,---,0.00,0.00,VWS V14.01,2013-10-06 20:50:00,
2013-10-06 22:55:00,46.0,41.8,30.28,East,81,0.0,0.0,85,0.00,,---,0.00,0.00,VWS V14.01,2013-10-06 20:55:00,
2013-10-06 23:00:00,45.8,41.9,30.29,East,81,0.0,0.0,86,0.00,,---,0.00,0.00,VWS V14.01,2013-10-06 21:00:00,
2013-10-06 23:10:00,45.7,41.8,30.29,East,81,0.0,0.0,86,0.00,,---,0.00,0.00,VWS V14.01,2013-10-06 21:10:00,
2013-10-06 23:15:00,45.7,41.8,30.29,East,81,0.0,0.0,86,0.00,,---,0.00,0.00,VWS V14.01,2013-10-06 21:15:00,
2013-10-06 23:25:00,45.6,42.0,30.29,East,81,0.0,1.0,87,0.00,,---,0.00,0.00,VWS V14.01,2013-10-06 21:25:00,
2013-10-06 23:35:00,45.7,42.1,30.29,East,86,0.0,0.0,87,0.00,,---,0.00,0.00,VWS V14.01,2013-10-06 21:35:00,
2013-10-06 23:40:00,45.6,42.0,30.29,East,87,0.0,0.0,87,0.00,,---,0.00,0.00,VWS V14.01,2013-10-06 21:40:00,
2013-10-06 23:45:00,45.6,42.0,30.29,East,87,0.0,0.0,87,0.00,,---,0.00,0.00,VWS V14.01,2013-10-06 21:45:00,
2013-10-06 23:55:00,45.6,42.0,30.29,East,87,0.0,0.0,87,0.00,,---,0.00,0.00,VWS V14.01,2013-10-06 21:55:00,